Time;durP1;ratioP1;P1;durP2;ratioP2;P2;SDS_P1;SDS_P2;PMS_P1;PMS_P2;Temp;Humidity;BMP_temperature;BMP_pressure;BME280_temperature;BME280_humidity;BME280_pressure;Samples;Min_cycle;Max_cycle;Signal;HPM_P1;HPM_P2
2022/08/10 00:01:51;;;;;;;7.65;2.60;;;;;;;21.82;71.71;102214.78;5046388;28;20662;-74
2022/08/10 00:04:22;;;;;;;5.97;2.70;;;;;;;21.77;72.35;102212.47;5041724;28;20049;-75
2022/08/10 00:06:51;;;;;;;6.82;2.45;;;;;;;21.75;72.72;102209.31;5043947;28;20048;-74
2022/08/10 00:09:18;;;;;;;3.92;2.22;;;;;;;21.74;72.64;102210.53;5048206;28;20075;-76
2022/08/10 00:11:47;;;;;;;5.50;2.33;;;;;;;21.70;73.37;102212.63;5047695;28;20793;-75
2022/08/10 00:14:14;;;;;;;8.85;2.60;;;;;;;21.62;73.90;102213.22;5046384;28;20565;-75
2022/08/10 00:16:40;;;;;;;5.70;2.60;;;;;;;21.58;74.96;102215.34;5045278;28;20044;-73
2022/08/10 00:19:07;;;;;;;7.78;2.67;;;;;;;21.55;74.49;102210.56;5046907;28;20056;-74
2022/08/10 00:21:35;;;;;;;5.10;2.72;;;;;;;21.49;75.07;102212.31;5048471;28;20151;-72
2022/08/10 00:24:02;;;;;;;5.75;2.42;;;;;;;21.44;75.31;102198.75;5047660;28;20044;-74
2022/08/10 00:26:29;;;;;;;4.20;2.40;;;;;;;21.44;76.01;102195.94;5045669;28;20045;-73
2022/08/10 00:29:15;;;;;;;7.07;2.65;;;;;;;21.40;77.08;102195.22;5043336;28;20052;-72
2022/08/10 00:31:42;;;;;;;4.72;2.60;;;;;;;21.33;77.58;102189.75;5044702;28;20045;-74
2022/08/10 00:34:24;;;;;;;7.10;3.13;;;;;;;21.30;77.73;102194.25;5041107;28;20169;-73
2022/08/10 00:36:50;;;;;;;7.15;2.92;;;;;;;21.25;78.35;102197.56;5044959;28;20041;-74
2022/08/10 00:39:17;;;;;;;6.72;3.00;;;;;;;21.25;77.71;102196.75;5045087;28;20059;-72
2022/08/10 00:41:44;;;;;;;6.78;2.78;;;;;;;21.21;79.90;102204.50;5045822;28;20054;-73
2022/08/10 00:44:26;;;;;;;6.90;2.95;;;;;;;21.16;79.65;102205.78;5048149;28;20047;-72
2022/08/10 00:46:53;;;;;;;5.97;3.03;;;;;;;21.12;79.64;102205.06;5041648;28;20045;-72
2022/08/10 00:49:20;;;;;;;7.53;3.42;;;;;;;21.07;80.33;102201.97;5042146;28;20060;-74
2022/08/10 00:51:46;;;;;;;5.20;3.00;;;;;;;21.05;81.93;102204.44;5047538;28;20071;-76
2022/08/10 00:54:15;;;;;;;5.30;3.42;;;;;;;21.01;80.91;102198.88;5050608;28;20057;-75
2022/08/10 00:56:50;;;;;;;6.10;2.90;;;;;;;21.01;82.04;102203.72;5044497;28;20044;-75
2022/08/10 00:59:37;;;;;;;5.47;2.90;;;;;;;20.94;81.79;102209.47;5044844;28;20128;-75
2022/08/10 01:02:24;;;;;;;8.52;3.40;;;;;;;20.89;83.91;102215.59;5045784;28;20556;-75
2022/08/10 01:04:51;;;;;;;5.38;3.28;;;;;;;20.86;83.67;102200.38;5041815;28;20122;-74
2022/08/10 01:07:41;;;;;;;6.45;3.15;;;;;;;20.85;85.18;102204.41;5047067;28;20050;-73
2022/08/10 01:10:23;;;;;;;7.22;3.28;;;;;;;20.82;86.06;102198.88;5057484;28;20529;-73
2022/08/10 01:12:55;;;;;;;8.23;3.13;;;;;;;20.78;86.67;102192.53;5058256;28;20055;-73
2022/08/10 01:15:42;;;;;;;10.38;3.50;;;;;;;20.80;86.40;102192.88;5066110;28;20033;-73
2022/08/10 01:18:17;;;;;;;9.40;3.70;;;;;;;20.77;86.64;102183.28;5064765;28;20044;-73
2022/08/10 01:20:56;;;;;;;8.20;3.33;;;;;;;20.78;87.09;102184.06;5058658;28;20040;-72
2022/08/10 01:23:26;;;;;;;7.07;3.65;;;;;;;20.77;87.37;102177.66;5060265;28;20049;-74
2022/08/10 01:26:04;;;;;;;11.57;3.45;;;;;;;20.75;87.89;102173.69;5055813;28;20036;-73
2022/08/10 01:29:19;;;;;;;6.45;3.13;;;;;;;20.71;87.25;102184.19;5057576;28;20048;-71
2022/08/10 01:31:50;;;;;;;8.43;3.43;;;;;;;20.68;88.71;102182.28;5062300;28;20055;-73
2022/08/10 01:34:22;;;;;;;7.63;3.45;;;;;;;20.63;88.76;102177.13;5066225;28;20048;-73
2022/08/10 01:37:02;;;;;;;8.40;3.45;;;;;;;20.63;89.13;102186.38;5067446;28;20045;-71
2022/08/10 01:39:39;;;;;;;5.72;3.20;;;;;;;20.59;88.21;102180.03;5070084;28;20128;-72
2022/08/10 01:42:10;;;;;;;7.50;3.63;;;;;;;20.55;90.04;102178.50;5067110;28;20044;-73
2022/08/10 01:44:46;;;;;;;9.32;3.60;;;;;;;20.51;90.02;102183.41;5068016;28;20360;-70
2022/08/10 01:50:08;;;;;;;6.38;3.33;;;;;;;20.45;91.88;102177.47;5068885;28;20154;-73
2022/08/10 01:52:39;;;;;;;7.10;3.03;;;;;;;20.43;92.34;102175.06;5066507;28;20050;-74
2022/08/10 01:55:12;;;;;;;8.63;3.92;;;;;;;20.43;92.53;102177.09;5069535;28;20048;-73
2022/08/10 01:57:41;;;;;;;8.30;3.55;;;;;;;20.41;91.25;102164.72;5065106;28;20041;-71
2022/08/10 02:00:09;;;;;;;6.60;3.22;;;;;;;20.33;92.62;102161.22;5060587;28;21021;-72
2022/08/10 02:02:36;;;;;;;9.38;4.68;;;;;;;20.28;93.75;102164.53;5064661;28;20484;-73
2022/08/10 02:05:10;;;;;;;8.80;3.58;;;;;;;20.25;94.56;102162.59;5068123;28;20405;-70
2022/08/10 02:07:39;;;;;;;9.82;3.78;;;;;;;20.24;94.17;102161.78;5072100;28;20058;-73
2022/08/10 02:10:10;;;;;;;7.68;4.07;;;;;;;20.22;94.25;102164.22;5061051;28;20449;-73
2022/08/10 02:12:38;;;;;;;10.18;3.70;;;;;;;20.25;93.53;102166.19;5068790;28;20112;-73
2022/08/10 02:15:13;;;;;;;10.35;3.55;;;;;;;20.22;94.15;102171.88;5068030;28;20040;-73
2022/08/10 02:17:45;;;;;;;;;;;;;;;20.20;97.24;102172.31;5061168;28;20120;-71
2022/08/10 02:20:29;;;;;;;;;;;;;;;20.19;98.20;102167.13;5057412;28;19916;-70
2022/08/10 02:23:01;;;;;;;7.55;3.60;;;;;;;20.20;94.90;102177.13;5063863;28;19932;-71
2022/08/10 02:25:31;;;;;;;8.48;3.67;;;;;;;20.18;93.94;102174.75;5068467;28;20526;-73
2022/08/10 02:28:13;;;;;;;10.07;3.55;;;;;;;20.16;94.72;102171.59;5063265;28;20077;-73
2022/08/10 02:31:00;;;;;;;8.23;3.70;;;;;;;20.12;96.21;102170.06;5062569;28;20094;-72
2022/08/10 02:33:28;;;;;;;7.30;3.38;;;;;;;20.12;96.00;102173.63;5058436;28;20043;-72
2022/08/10 02:35:59;;;;;;;8.93;3.92;;;;;;;20.11;95.52;102165.63;5068525;28;20055;-71
2022/08/10 02:38:33;;;;;;;8.57;3.60;;;;;;;20.09;96.30;102168.84;5066449;28;20501;-73
2022/08/10 02:41:38;;;;;;;10.27;4.00;;;;;;;20.06;96.83;102172.53;5063500;28;20497;-73
2022/08/10 02:44:29;;;;;;;7.93;4.00;;;;;;;20.06;95.81;102171.72;5068220;28;20040;-72
2022/08/10 02:47:34;;;;;;;8.13;3.85;;;;;;;20.00;97.42;102171.41;5063459;28;20052;-72
2022/08/10 02:50:38;;;;;;;8.40;3.60;;;;;;;19.97;98.21;102174.28;5058140;28;20044;-73
2022/08/10 02:53:15;;;;;;;10.88;4.25;;;;;;;19.96;96.68;102176.31;5065548;28;20076;-71
2022/08/10 02:56:10;;;;;;;13.68;4.10;;;;;;;19.89;97.24;102173.63;5061034;28;20036;-72
2022/08/10 02:58:50;;;;;;;7.22;3.95;;;;;;;19.86;98.84;102179.28;5068126;28;20055;-72
2022/08/10 03:01:20;;;;;;;10.27;3.83;;;;;;;19.83;99.08;102186.56;5063042;28;20048;-72
2022/08/10 03:04:02;;;;;;;10.05;4.68;;;;;;;19.81;100.00;102183.38;5067479;28;20182;-69
2022/08/10 03:06:37;;;;;;;10.30;4.10;;;;;;;19.80;100.00;102176.16;5067408;28;20040;-71
2022/08/10 03:09:07;;;;;;;10.02;3.85;;;;;;;19.82;99.29;102182.16;5061010;28;20045;-72
2022/08/10 03:11:36;;;;;;;9.98;3.60;;;;;;;19.76;99.32;102169.81;5065351;28;20044;-73
2022/08/10 03:14:24;;;;;;;10.73;3.88;;;;;;;19.74;99.02;102183.47;5063535;28;20059;-72
2022/08/10 03:16:53;;;;;;;12.77;4.38;;;;;;;19.71;100.00;102184.31;5061831;28;20037;-73
2022/08/10 03:19:23;;;;;;;8.65;4.22;;;;;;;19.62;100.00;102183.28;5055878;28;20049;-70
2022/08/10 03:22:18;;;;;;;8.82;3.88;;;;;;;19.61;100.00;102181.69;5065232;28;20049;-71
2022/08/10 03:24:45;;;;;;;11.27;3.90;;;;;;;19.56;100.00;102185.78;5065938;28;20041;-71
2022/08/10 03:27:15;;;;;;;12.57;4.00;;;;;;;19.56;100.00;102185.78;5061246;28;20045;-73
2022/08/10 03:29:43;;;;;;;10.88;4.38;;;;;;;19.52;100.00;102179.41;5063377;28;20481;-71
2022/08/10 03:32:29;;;;;;;12.05;4.20;;;;;;;19.51;100.00;102185.47;5061447;28;20048;-71
2022/08/10 03:34:58;;;;;;;8.68;4.18;;;;;;;19.45;100.00;102181.53;5068042;28;20036;-71
2022/08/10 03:37:26;;;;;;;11.13;4.10;;;;;;;19.45;100.00;102173.91;5063830;28;20050;-73
2022/08/10 03:39:59;;;;;;;12.50;4.05;;;;;;;19.46;100.00;102183.09;5066496;28;20040;-71
2022/08/10 03:42:30;;;;;;;15.35;4.57;;;;;;;19.41;100.00;102173.13;5067095;28;20127;-71
2022/08/10 03:44:57;;;;;;;10.15;3.92;;;;;;;19.41;100.00;102175.19;5064416;28;20500;-71
2022/08/10 03:47:28;;;;;;;9.52;4.07;;;;;;;19.39;100.00;102177.59;5061014;28;20045;-71
2022/08/10 03:49:56;;;;;;;8.40;4.03;;;;;;;19.34;100.00;102170.44;5061141;28;20135;-73
2022/08/10 03:52:29;;;;;;;8.73;4.00;;;;;;;19.30;100.00;102172.50;5063215;28;20396;-72
2022/08/10 03:54:57;;;;;;;12.93;4.47;;;;;;;19.24;100.00;102171.34;5065675;28;20392;-72
2022/08/10 03:57:29;;;;;;;9.38;4.20;;;;;;;19.22;100.00;102176.59;5058660;28;20888;-72
2022/08/10 03:59:58;;;;;;;12.77;4.22;;;;;;;19.18;100.00;102167.44;5062408;28;20050;-72
2022/08/10 04:02:27;;;;;;;14.18;3.90;;;;;;;19.14;100.00;102168.72;5065006;28;20051;-71
2022/08/10 04:05:18;;;;;;;9.73;4.78;;;;;;;19.04;100.00;102172.44;5055892;28;20481;-72
2022/08/10 04:07:45;;;;;;;9.98;4.40;;;;;;;19.00;100.00;102161.25;5063351;28;20044;-72
2022/08/10 04:10:13;;;;;;;10.75;4.50;;;;;;;19.01;100.00;102162.06;5067833;28;20479;-71
2022/08/10 04:12:39;;;;;;;15.48;4.38;;;;;;;18.96;100.00;102168.94;5062804;28;20045;-72
2022/08/10 04:15:09;;;;;;;10.07;4.50;;;;;;;18.92;100.00;102170.19;5063188;28;20052;-71
2022/08/10 04:17:35;;;;;;;8.00;4.03;;;;;;;18.89;100.00;102166.22;5062911;28;20128;-71
2022/08/10 04:20:25;;;;;;;8.80;4.47;;;;;;;18.88;100.00;102164.63;5066059;28;20075;-71
2022/08/10 04:23:05;;;;;;;10.30;4.40;;;;;;;18.84;100.00;102161.09;5055683;28;20045;-72
2022/08/10 04:25:35;;;;;;;12.10;4.65;;;;;;;18.85;100.00;102156.25;5064390;28;20052;-71
2022/08/10 04:28:02;;;;;;;8.07;3.90;;;;;;;18.84;100.00;102158.28;5054657;28;20049;-70
2022/08/10 04:30:31;;;;;;;11.18;4.43;;;;;;;18.87;100.00;102162.25;5061850;28;20901;-71
2022/08/10 04:33:05;;;;;;;13.88;4.63;;;;;;;18.87;100.00;102167.84;5064101;28;20048;-70
2022/08/10 04:35:32;;;;;;;13.13;4.95;;;;;;;18.86;100.00;102174.69;5066040;28;20063;-72
2022/08/10 04:38:00;;;;;;;11.93;4.90;;;;;;;18.86;100.00;102169.06;5062666;28;20068;-71
2022/08/10 04:40:27;;;;;;;10.93;4.93;;;;;;;18.90;100.00;102169.81;5062292;28;20159;-72
2022/08/10 04:43:01;;;;;;;10.70;4.75;;;;;;;18.90;100.00;102164.22;5066510;28;20048;-69
2022/08/10 04:45:36;;;;;;;10.75;4.57;;;;;;;18.92;100.00;102161.75;5063564;28;20067;-72
2022/08/10 04:48:16;;;;;;;12.30;4.90;;;;;;;18.91;100.00;102165.78;5065743;28;20057;-72
2022/08/10 04:51:03;;;;;;;14.00;4.82;;;;;;;18.92;100.00;102167.38;5057726;28;20063;-72
2022/08/10 04:53:32;;;;;;;11.38;4.78;;;;;;;18.95;100.00;102163.75;5067527;28;20079;-73
2022/08/10 04:56:19;;;;;;;10.52;4.38;;;;;;;18.98;100.00;102168.50;5064831;28;20394;-70
2022/08/10 04:58:56;;;;;;;9.02;4.60;;;;;;;18.98;100.00;102165.69;5066691;28;20525;-71
2022/08/10 05:01:23;;;;;;;11.32;5.43;;;;;;;19.01;100.00;102170.47;5063037;28;20057;-71
2022/08/10 05:03:50;;;;;;;10.73;5.03;;;;;;;19.03;100.00;102173.66;5063315;28;20045;-71
2022/08/10 05:06:36;;;;;;;8.98;4.30;;;;;;;19.06;100.00;102178.41;5065796;28;20057;-71
2022/08/10 05:09:03;;;;;;;12.88;4.93;;;;;;;19.08;100.00;102176.81;5065372;28;20152;-70
2022/08/10 05:11:30;;;;;;;17.10;6.05;;;;;;;19.10;100.00;102177.16;5065874;28;20048;-73
2022/08/10 05:13:56;;;;;;;10.68;4.85;;;;;;;19.14;100.00;102182.75;5068503;28;20141;-71
2022/08/10 05:16:23;;;;;;;10.18;4.28;;;;;;;19.15;100.00;102185.13;5070283;28;20063;-73
2022/08/10 05:18:58;;;;;;;10.75;5.07;;;;;;;19.22;100.00;102182.22;5067349;28;20169;-72
2022/08/10 05:21:24;;;;;;;21.05;5.35;;;;;;;19.28;100.00;102183.38;5070522;28;20048;-71
2022/08/10 05:24:11;;;;;;;11.50;4.85;;;;;;;19.33;100.00;102182.91;5065998;28;20499;-72
2022/08/10 05:26:37;;;;;;;11.07;4.90;;;;;;;19.34;100.00;102178.09;5068375;28;20055;-70
2022/08/10 05:29:24;;;;;;;10.40;4.75;;;;;;;19.40;100.00;102185.59;5064022;28;20512;-69
2022/08/10 05:31:51;;;;;;;12.55;5.28;;;;;;;19.46;100.00;102183.91;5067642;28;20044;-71
2022/08/10 05:34:18;;;;;;;12.57;5.30;;;;;;;19.55;100.00;102191.81;5064816;28;20063;-72
2022/08/10 05:36:47;;;;;;;12.15;5.10;;;;;;;19.60;100.00;102177.28;5064897;28;20121;-71
2022/08/10 05:39:17;;;;;;;12.05;5.82;;;;;;;19.67;100.00;102177.97;5070593;28;20048;-71
2022/08/10 05:41:54;;;;;;;11.18;4.75;;;;;;;19.73;100.00;102179.09;5062088;28;20063;-74
2022/08/10 05:44:30;;;;;;;15.48;6.05;;;;;;;19.80;100.00;102186.59;5068554;28;20048;-71
2022/08/10 05:46:59;;;;;;;15.15;7.18;;;;;;;19.86;100.00;102182.09;5067473;28;20057;-70
2022/08/10 05:49:26;;;;;;;11.38;5.10;;;;;;;19.88;100.00;102183.25;5069011;28;20527;-74
2022/08/10 05:51:52;;;;;;;14.20;5.07;;;;;;;19.94;100.00;102187.16;5067132;28;20052;-71
2022/08/10 05:54:19;;;;;;;12.55;5.10;;;;;;;19.98;100.00;102193.53;5069917;28;20052;-71
2022/08/10 05:56:48;;;;;;;12.45;5.28;;;;;;;20.05;100.00;102189.81;5063269;28;20047;-71
2022/08/10 05:59:26;;;;;;;16.80;5.70;;;;;;;20.14;100.00;102196.50;5063480;28;20118;-74
2022/08/10 06:02:35;;;;;;;14.02;5.55;;;;;;;20.23;100.00;102195.94;5062950;28;20051;-75
2022/08/10 06:05:22;;;;;;;10.85;5.47;;;;;;;20.31;99.46;102198.22;5068763;28;20102;-72
2022/08/10 06:07:55;;;;;;;10.27;5.18;;;;;;;20.38;98.98;102202.91;5072581;28;20080;-74
2022/08/10 06:10:23;;;;;;;10.35;4.97;;;;;;;20.43;98.40;102203.19;5070057;28;20471;-74
2022/08/10 06:16:03;;;;;;;15.07;6.32;;;;;;;20.55;96.52;102203.81;5065610;28;20060;-73
2022/08/10 06:18:30;;;;;;;15.35;5.78;;;;;;;20.60;95.83;102204.09;5064081;28;20139;-73
2022/08/10 06:20:56;;;;;;;11.95;4.95;;;;;;;20.64;94.84;102206.84;5071469;28;20156;-70
2022/08/10 06:23:27;;;;;;;13.23;5.82;;;;;;;20.71;94.34;102201.06;5066531;28;20064;-72
2022/08/10 06:25:54;;;;;;;11.75;5.65;;;;;;;20.79;93.92;102199.72;5066151;28;20058;-74
2022/08/10 06:28:44;;;;;;;13.20;5.65;;;;;;;20.85;92.47;102203.63;5058680;28;20474;-74
2022/08/10 06:31:29;;;;;;;10.45;5.53;;;;;;;20.90;91.85;102206.72;5066777;28;20080;-72
2022/08/10 06:34:23;;;;;;;10.68;5.07;;;;;;;20.95;91.33;102211.09;5070619;28;20683;-74
2022/08/10 06:36:51;;;;;;;13.30;5.78;;;;;;;21.01;91.02;102201.69;5068435;28;20493;-73
2022/08/10 06:39:19;;;;;;;12.05;5.18;;;;;;;21.02;90.37;102200.47;5060057;28;20052;-74
2022/08/10 06:42:31;;;;;;;12.57;4.82;;;;;;;21.14;89.67;102204.66;5058186;28;20516;-74
2022/08/10 06:45:08;;;;;;;8.93;4.45;;;;;;;21.24;88.92;102210.06;5066200;28;20564;-72
2022/08/10 06:47:42;;;;;;;11.60;5.05;;;;;;;21.28;88.01;102212.78;5045829;28;20056;-72
2022/08/10 06:50:19;;;;;;;12.07;5.07;;;;;;;21.31;87.47;102206.28;5056539;28;20066;-72
2022/08/10 06:53:18;;;;;;;10.05;4.85;;;;;;;21.41;87.40;102199.63;5062410;28;20416;-71
2022/08/10 06:55:50;;;;;;;10.13;4.57;;;;;;;21.48;86.95;102199.47;5063175;28;20041;-74
2022/08/10 06:58:25;;;;;;;10.23;4.45;;;;;;;21.60;86.12;102207.25;5067293;28;20048;-71
2022/08/10 07:00:54;;;;;;;11.30;4.65;;;;;;;21.68;85.65;102203.03;5069092;28;20135;-75
2022/08/10 07:03:26;;;;;;;13.20;4.70;;;;;;;21.76;84.81;102201.66;5062058;28;20075;-78
2022/08/10 07:05:54;;;;;;;12.63;4.38;;;;;;;21.85;84.32;102207.47;5063497;28;20140;-76
2022/08/10 07:08:25;;;;;;;13.50;5.05;;;;;;;21.95;83.88;102203.63;5062279;28;20048;-72
2022/08/10 07:10:53;;;;;;;9.00;4.63;;;;;;;22.06;83.08;102198.50;5058983;28;20058;-71
2022/08/10 07:13:20;;;;;;;10.60;4.93;;;;;;;22.18;82.13;102200.63;5063964;28;20040;-72
2022/08/10 07:16:10;;;;;;;11.00;4.93;;;;;;;22.30;81.42;102199.88;5065713;28;20045;-73
2022/08/10 07:18:41;;;;;;;12.90;4.80;;;;;;;22.38;80.09;102199.25;5057958;28;20505;-73
2022/08/10 07:21:09;;;;;;;10.55;4.40;;;;;;;22.46;79.76;102195.03;5063621;28;20058;-74
2022/08/10 07:23:38;;;;;;;8.38;4.25;;;;;;;22.59;79.50;102206.41;5063116;28;20136;-68
2022/08/10 07:26:27;;;;;;;11.00;4.38;;;;;;;22.65;77.76;102205.41;5061089;28;20075;-70
2022/08/10 07:28:54;;;;;;;9.10;3.83;;;;;;;22.70;76.06;102202.03;5063506;28;20059;-69
2022/08/10 07:31:22;;;;;;;12.07;4.15;;;;;;;22.83;75.78;102204.91;5065207;28;20795;-70
2022/08/10 07:34:16;;;;;;;9.77;3.97;;;;;;;22.93;74.16;102203.81;5065047;28;20052;-70
2022/08/10 07:36:57;;;;;;;12.57;3.90;;;;;;;23.06;75.15;102212.31;5065696;28;20080;-71
2022/08/10 07:39:28;;;;;;;12.20;3.95;;;;;;;23.16;73.88;102214.03;5066123;28;20052;-69
2022/08/10 07:42:20;;;;;;;11.00;3.67;;;;;;;23.22;72.59;102215.88;5064035;28;20048;-71
2022/08/10 07:44:47;;;;;;;9.85;4.20;;;;;;;23.27;72.20;102209.69;5065043;28;20059;-69
2022/08/10 07:47:17;;;;;;;8.10;3.83;;;;;;;23.36;72.53;102215.47;5061454;28;20051;-70
2022/08/10 07:50:07;;;;;;;9.50;3.50;;;;;;;23.49;71.94;102219.09;5063809;28;20056;-69
2022/08/10 07:52:36;;;;;;;7.82;3.85;;;;;;;23.52;71.76;102212.53;5058956;28;20238;-71
2022/08/10 07:55:09;;;;;;;11.50;3.70;;;;;;;23.65;71.43;102215.41;5071820;28;20144;-68
2022/08/10 07:57:43;;;;;;;9.93;4.00;;;;;;;23.73;69.65;102211.91;5067315;28;20041;-71
2022/08/10 08:00:11;;;;;;;12.10;3.90;;;;;;;23.81;69.47;102218.09;5059596;28;20138;-72
2022/08/10 08:02:45;;;;;;;9.18;4.05;;;;;;;23.94;69.20;102213.25;5062455;28;20472;-69
2022/08/10 08:05:13;;;;;;;11.20;4.75;;;;;;;24.06;69.49;102218.13;5063899;28;20055;-72
2022/08/10 08:08:02;;;;;;;10.77;3.50;;;;;;;24.16;66.72;102217.75;5064219;28;20051;-71
2022/08/10 08:10:30;;;;;;;9.45;4.32;;;;;;;24.25;67.46;102217.06;5067109;28;20063;-73
2022/08/10 08:13:07;;;;;;;10.35;4.32;;;;;;;24.35;66.44;102216.69;5060362;28;20067;-69
2022/08/10 08:15:34;;;;;;;13.75;3.97;;;;;;;24.45;66.06;102217.56;5053902;28;20051;-72
2022/08/10 08:18:22;;;;;;;11.27;3.47;;;;;;;24.52;65.68;102222.97;5066699;28;20052;-69
2022/08/10 08:20:53;;;;;;;10.70;3.63;;;;;;;24.59;64.25;102217.88;5064157;28;20080;-72
2022/08/10 08:23:27;;;;;;;11.18;3.88;;;;;;;24.70;63.49;102215.47;5054427;28;20408;-70
2022/08/10 08:26:16;;;;;;;8.88;3.70;;;;;;;24.75;62.56;102208.44;5063825;28;20052;-68
2022/08/10 08:28:44;;;;;;;14.30;4.55;;;;;;;24.84;62.73;102206.47;5063195;28;20050;-69
2022/08/10 08:31:16;;;;;;;17.20;3.90;;;;;;;24.87;62.55;102202.72;5060183;28;20523;-71
2022/08/10 08:33:44;;;;;;;10.32;4.10;;;;;;;24.99;62.75;102210.34;5065414;28;20062;-67
2022/08/10 08:36:15;;;;;;;10.63;4.15;;;;;;;25.09;60.85;102206.34;5066682;28;20127;-69
2022/08/10 08:38:42;;;;;;;10.70;3.55;;;;;;;25.18;59.70;102206.38;5059728;28;20049;-69
2022/08/10 08:41:52;;;;;;;10.18;3.63;;;;;;;25.36;58.24;102204.94;5068859;28;20135;-69
2022/08/10 08:45:06;;;;;;;8.10;3.85;;;;;;;25.52;58.54;102199.03;5064004;28;20057;-69
2022/08/10 08:47:39;;;;;;;9.70;3.90;;;;;;;25.62;58.01;102204.31;5030300;28;20045;-69
2022/08/10 08:50:48;;;;;;;13.00;3.80;;;;;;;25.78;58.43;102191.91;5069198;28;20048;-70
2022/08/10 08:53:36;;;;;;;8.73;3.45;;;;;;;25.95;55.41;102196.06;5066147;28;20052;-66
2022/08/10 08:56:59;;;;;;;7.82;3.25;;;;;;;26.03;51.67;102195.34;5065017;28;20052;-68
2022/08/10 08:59:53;;;;;;;10.38;4.25;;;;;;;26.12;52.40;102189.66;5062902;28;20362;-71
2022/08/10 09:02:30;;;;;;;9.55;3.92;;;;;;;26.23;52.17;102187.19;5069981;28;20044;-69
2022/08/10 09:05:36;;;;;;;6.20;3.28;;;;;;;26.34;51.06;102187.50;5064179;28;20049;-72
2022/08/10 09:08:47;;;;;;;14.10;3.40;;;;;;;26.52;51.88;102176.16;5064390;28;20502;-71
2022/08/10 09:12:01;;;;;;;11.13;3.60;;;;;;;26.69;51.31;102185.19;5068709;28;20140;-70
2022/08/10 09:14:47;;;;;;;9.90;3.25;;;;;;;26.85;50.27;102182.78;5051875;28;20062;-68
2022/08/10 09:17:39;;;;;;;6.47;3.13;;;;;;;26.94;48.79;102173.47;5068698;28;20630;-71
2022/08/10 09:20:28;;;;;;;15.57;4.32;;;;;;;27.04;48.94;102180.72;5066010;28;20052;-68
2022/08/10 09:23:02;;;;;;;8.02;3.22;;;;;;;27.26;49.61;102176.44;5063660;28;20143;-68
2022/08/10 09:25:35;;;;;;;8.50;3.10;;;;;;;27.41;48.70;102168.00;5062435;28;20048;-67
2022/08/10 09:28:04;;;;;;;9.82;3.35;;;;;;;27.49;47.82;102172.06;5060348;28;20046;-67
2022/08/10 09:30:39;;;;;;;7.82;3.10;;;;;;;27.64;48.19;102170.13;5059330;28;20056;-69
2022/08/10 09:33:48;;;;;;;9.60;3.35;;;;;;;27.80;45.71;102166.88;5065252;28;20048;-70
2022/08/10 09:36:46;;;;;;;5.95;3.03;;;;;;;27.94;45.83;102159.72;5068035;28;21525;-71
2022/08/10 09:39:27;;;;;;;8.27;3.20;;;;;;;28.04;44.87;102159.16;5059399;28;20044;-72
2022/08/10 09:42:31;;;;;;;9.70;3.22;;;;;;;28.19;45.12;102145.81;5076586;28;20060;-70
2022/08/10 09:45:45;;;;;;;9.93;3.40;;;;;;;28.45;44.51;102155.41;5069443;28;20488;-68
2022/08/10 09:48:44;;;;;;;10.77;3.60;;;;;;;28.64;43.06;102151.16;5053626;28;20047;-70
2022/08/10 09:51:52;;;;;;;7.78;3.38;;;;;;;28.83;40.81;102151.75;5060584;28;20040;-66
2022/08/10 09:54:34;;;;;;;16.15;3.72;;;;;;;29.01;40.51;102151.56;5081226;28;20072;-68
2022/08/10 09:57:12;;;;;;;10.60;3.38;;;;;;;29.15;40.41;102153.66;5062056;28;20056;-70
2022/08/10 10:00:11;;;;;;;7.47;3.63;;;;;;;29.24;38.61;102147.84;5067309;28;20049;-66
2022/08/10 10:03:01;;;;;;;10.35;3.10;;;;;;;29.29;38.50;102139.38;5067568;28;20048;-70
2022/08/10 10:05:48;;;;;;;8.80;3.05;;;;;;;29.51;38.87;102134.06;5065530;28;20060;-71
2022/08/10 10:08:20;;;;;;;7.35;3.00;;;;;;;29.62;37.39;102133.44;5064423;28;20044;-70
2022/08/10 10:11:02;;;;;;;10.27;3.53;;;;;;;29.65;36.63;102138.16;5066474;28;20055;-70
2022/08/10 10:13:44;;;;;;;10.15;3.50;;;;;;;29.68;36.39;102126.56;5065994;28;20066;-70
2022/08/10 10:16:51;;;;;;;7.70;3.58;;;;;;;29.79;35.72;102128.00;5061725;28;20060;-69
2022/08/10 10:19:42;;;;;;;5.72;3.10;;;;;;;29.93;36.64;102119.34;5068950;28;20054;-70
2022/08/10 10:22:37;;;;;;;7.15;2.78;;;;;;;29.99;36.09;102111.66;5067331;28;20048;-71
2022/08/10 10:25:12;;;;;;;6.80;2.97;;;;;;;29.99;35.07;102108.03;5065748;28;20055;-71
2022/08/10 10:27:52;;;;;;;7.97;3.83;;;;;;;30.12;35.01;102108.44;5064899;28;20590;-67
2022/08/10 10:30:23;;;;;;;12.02;3.30;;;;;;;30.26;35.65;102110.50;5066011;28;20080;-70
2022/08/10 10:33:08;;;;;;;6.75;3.30;;;;;;;30.39;34.63;102105.16;5066300;28;20135;-67
2022/08/10 10:35:55;;;;;;;9.75;3.30;;;;;;;30.42;32.58;102107.81;5064737;28;20048;-70
2022/08/10 10:38:31;;;;;;;9.43;3.63;;;;;;;30.55;33.62;102111.06;5069064;28;20045;-69
2022/08/10 10:41:34;;;;;;;9.13;3.85;;;;;;;30.67;32.34;102104.19;5068021;28;20044;-67
2022/08/10 10:44:40;;;;;;;8.48;3.28;;;;;;;30.61;32.74;102097.63;5046748;28;20410;-70
2022/08/10 10:47:29;;;;;;;9.25;3.15;;;;;;;30.68;32.22;102093.53;5065300;28;20055;-69
2022/08/10 10:50:14;;;;;;;9.68;3.28;;;;;;;30.77;32.90;102090.56;5058192;28;20052;-70
2022/08/10 10:53:17;;;;;;;9.00;3.08;;;;;;;30.94;32.61;102088.63;5062414;28;20136;-69
2022/08/10 10:55:49;;;;;;;7.80;3.42;;;;;;;30.94;32.81;102088.63;5052685;28;20059;-68
2022/08/10 10:58:48;;;;;;;7.07;3.10;;;;;;;31.00;32.10;102086.59;5059014;28;20048;-68
2022/08/10 11:01:20;;;;;;;9.20;3.08;;;;;;;31.03;31.28;102085.56;5061115;28;20056;-70
2022/08/10 11:04:00;;;;;;;8.10;3.75;;;;;;;31.02;31.45;102084.00;5076112;28;20044;-68
2022/08/10 11:06:50;;;;;;;9.27;3.08;;;;;;;31.23;31.66;102083.41;5065357;28;20052;-69
2022/08/10 11:09:26;;;;;;;6.93;2.95;;;;;;;31.32;31.59;102079.59;5065908;28;20110;-71
2022/08/10 11:12:36;;;;;;;12.32;3.03;;;;;;;31.43;30.72;102076.81;5062838;28;20048;-71
2022/08/10 11:15:23;;;;;;;7.57;2.92;;;;;;;31.69;31.25;102069.66;5061406;28;20079;-69
2022/08/10 11:17:56;;;;;;;7.47;2.78;;;;;;;31.63;30.00;102068.09;5064403;28;20090;-71
2022/08/10 11:20:31;;;;;;;6.28;2.75;;;;;;;31.64;30.37;102070.44;5061609;28;20762;-70
2022/08/10 11:23:23;;;;;;;6.00;2.97;;;;;;;31.75;29.56;102064.75;5053523;28;20052;-70
2022/08/10 11:26:08;;;;;;;8.43;2.90;;;;;;;31.79;28.86;102058.81;5037280;28;20045;-71
2022/08/10 11:29:01;;;;;;;7.65;2.50;;;;;;;31.80;28.02;102044.03;5048024;28;20059;-70
2022/08/10 11:31:45;;;;;;;6.32;2.58;;;;;;;31.85;28.15;102053.91;5038678;28;20855;-71
2022/08/10 11:34:20;;;;;;;4.95;2.30;;;;;;;32.01;28.52;102053.19;5044492;28;20356;-72
2022/08/10 11:37:25;;;;;;;5.73;2.47;;;;;;;32.23;28.09;102038.97;5041234;28;20057;-72
2022/08/10 11:40:00;;;;;;;6.13;2.25;;;;;;;32.42;28.87;102051.50;5046275;28;20130;-71
2022/08/10 11:42:40;;;;;;;8.95;2.30;;;;;;;32.45;27.65;102041.88;5050349;28;20056;-72
2022/08/10 11:45:23;;;;;;;8.98;3.20;;;;;;;32.65;28.04;102035.91;5048597;28;20063;-72
2022/08/10 11:47:52;;;;;;;6.38;2.28;;;;;;;32.77;27.66;102048.16;5047276;28;20048;-72
2022/08/10 11:50:21;;;;;;;6.13;2.30;;;;;;;32.83;27.53;102038.25;5045005;28;20063;-72
2022/08/10 11:52:48;;;;;;;7.18;2.53;;;;;;;32.80;28.16;102038.53;5041452;28;20570;-74
2022/08/10 11:55:21;;;;;;;6.43;2.10;;;;;;;32.95;27.83;102024.72;5045430;28;20144;-74
2022/08/10 11:57:51;;;;;;;4.63;2.22;;;;;;;33.04;27.96;102025.25;5036802;28;20169;-75
2022/08/10 12:00:22;;;;;;;5.07;2.13;;;;;;;33.09;27.64;102030.19;5037145;28;20052;-72
2022/08/10 12:02:54;;;;;;;6.47;2.55;;;;;;;32.98;26.44;102030.22;5046686;28;20151;-75
2022/08/10 12:05:28;;;;;;;7.25;2.47;;;;;;;33.09;26.48;102040.88;5045838;28;20056;-74
2022/08/10 12:08:18;;;;;;;5.50;2.50;;;;;;;33.09;26.43;102027.34;5056274;28;20066;-73
2022/08/10 12:11:07;;;;;;;7.18;2.30;;;;;;;33.20;26.95;102023.69;5038647;28;20048;-73
2022/08/10 12:13:45;;;;;;;5.45;2.67;;;;;;;33.39;26.71;102027.56;5040097;28;20130;-72
2022/08/10 12:16:37;;;;;;;4.55;2.63;;;;;;;33.44;26.09;102021.81;5034383;28;20067;-73